Jay Em, Wyoming
Current Conditions -  °F | °C
As of 9:15 PM on Thursday 27 Nov 2014 (Local Time) from KGUR Reporting Station
Clear Clear  
Wind Chill: 57°   Ceiling: Unl
Heat Index: 57°   Visibility: 10mi
Dew Point: 28°   Wind: 14mph
Humidity: 33%   Direction: 240°WSW
Pressure: 29.99"   Gusts: NA
Location:  42.46°N, 104.37°W
Report Text: KGUR 280415Z AUTO 24012KT 10SM CLR 14/M02 A2999 RMK AO2 T01401020
Loading
Personal Weather Stations






























Interactive Weather Map New forecast layout! Learn more

10-Day Weather Forecast

Advertisements
Track Severe Weather on mobile